Time;durP1;ratioP1;P1;durP2;ratioP2;P2;SDS_P1;SDS_P2;PMS_P1;PMS_P2;Temp;Humidity;BMP_temperature;BMP_pressure;BME280_temperature;BME280_humidity;BME280_pressure;Samples;Min_cycle;Max_cycle;Signal;HPM_P1;HPM_P2
2022/04/28 00:01:55;;;;;;;;;44.25;33.50;;;;;14.19;48.06;102068.63;5039263;28;45357;-44
2022/04/28 00:04:21;;;;;;;;;39.25;33.75;;;;;14.10;49.32;102055.25;5038936;28;45911;-42
2022/04/28 00:06:46;;;;;;;;;34.75;25.50;;;;;14.13;48.08;102057.66;5038989;28;45440;-42
2022/04/28 00:09:12;;;;;;;;;39.25;29.00;;;;;14.10;47.91;102058.75;5039304;28;45349;-41
2022/04/28 00:11:37;;;;;;;;;42.50;34.75;;;;;14.07;49.03;102067.03;5038393;28;45288;-45
2022/04/28 00:14:03;;;;;;;;;39.00;35.00;;;;;14.06;49.14;102067.19;5038991;28;46175;-41
2022/04/28 00:16:29;;;;;;;;;33.25;28.50;;;;;14.02;49.19;102058.59;5038631;28;45269;-42
2022/04/28 00:18:54;;;;;;;;;45.25;36.50;;;;;14.01;49.11;102062.25;5038902;28;45277;-44
2022/04/28 00:21:20;;;;;;;;;32.75;28.00;;;;;13.98;47.90;102067.88;5039282;28;45192;-42
2022/04/28 00:23:46;;;;;;;;;41.00;33.75;;;;;13.92;48.72;102063.94;5038276;28;45405;-37
2022/04/28 00:26:12;;;;;;;;;36.00;33.50;;;;;13.90;49.21;102057.00;5038447;28;45341;-45
2022/04/28 00:28:37;;;;;;;;;37.50;32.25;;;;;13.89;48.91;102066.88;5038686;28;45433;-44
2022/04/28 00:31:03;;;;;;;;;33.75;33.25;;;;;13.86;49.30;102060.94;5038763;28;45961;-47
2022/04/28 00:33:28;;;;;;;;;33.25;31.25;;;;;13.86;48.56;102050.25;5038455;28;46057;-43
2022/04/28 00:35:55;;;;;;;;;36.00;28.75;;;;;13.82;48.63;102055.03;5038336;28;45282;-44
2022/04/28 00:38:21;;;;;;;;;34.75;24.50;;;;;13.79;48.54;102049.94;5038544;28;45232;-41
2022/04/28 00:40:47;;;;;;;;;37.50;29.75;;;;;13.77;49.52;102051.06;5038356;28;45472;-43
2022/04/28 00:43:19;;;;;;;;;36.00;33.00;;;;;13.67;49.15;102038.50;5038208;28;45530;-43
2022/04/28 00:45:48;;;;;;;;;45.50;34.25;;;;;13.71;49.07;102052.47;5038381;28;45329;-44
2022/04/28 00:51:01;;;;;;;;;42.25;34.25;;;;;13.61;49.34;102056.91;5038596;28;45171;-45
2022/04/28 00:53:29;;;;;;;;;33.75;31.00;;;;;13.58;49.50;102076.75;5037994;28;46491;-42
2022/04/28 00:55:57;;;;;;;;;38.25;32.00;;;;;13.56;49.79;102059.13;5038031;28;45409;-44
2022/04/28 00:58:24;;;;;;;;;41.75;35.50;;;;;13.52;50.04;102050.53;5038111;28;45396;-42
2022/04/28 01:00:49;;;;;;;;;34.75;29.75;;;;;13.45;49.27;102052.06;5037971;28;45238;-45
2022/04/28 01:03:15;;;;;;;;;45.25;34.75;;;;;13.41;49.26;102045.28;5037948;28;46101;-42
2022/04/28 01:05:41;;;;;;;;;43.25;32.75;;;;;13.42;49.67;102057.69;5036660;28;45584;-43
2022/04/28 01:08:07;;;;;;;;;34.25;31.50;;;;;13.38;49.34;102050.91;5038035;28;45252;-40
2022/04/28 01:10:34;;;;;;;;;35.75;33.25;;;;;13.35;50.30;102045.81;5037940;28;45460;-45
2022/04/28 01:13:00;;;;;;;;;43.75;35.75;;;;;13.33;49.94;102053.13;5037469;28;45357;-45
2022/04/28 01:15:26;;;;;;;;;38.50;32.00;;;;;13.16;49.95;102027.84;5036410;28;45441;-43
2022/04/28 01:17:51;;;;;;;;;42.25;31.25;;;;;13.25;50.02;102053.78;5037911;28;45199;-43
2022/04/28 01:20:17;;;;;;;;;38.50;33.00;;;;;13.21;49.94;102055.84;5038090;28;45218;-47
2022/04/28 01:22:42;;;;;;;;;37.50;31.75;;;;;13.20;50.07;102053.31;5037219;28;45230;-42
2022/04/28 01:25:09;;;;;;;;;34.75;31.50;;;;;13.15;50.09;102056.38;5037551;28;45190;-46
2022/04/28 01:27:36;;;;;;;;;47.25;35.25;;;;;13.11;50.06;102051.44;5037855;28;45329;-42
2022/04/28 01:30:05;;;;;;;;;37.50;31.75;;;;;13.09;50.83;102048.88;5037684;28;45332;-43
2022/04/28 01:32:30;;;;;;;;;46.25;34.75;;;;;13.08;50.62;102055.19;5037253;28;46658;-45
2022/04/28 01:34:55;;;;;;;;;42.25;31.25;;;;;13.05;50.48;102050.13;5037317;28;45361;-42
2022/04/28 01:37:21;;;;;;;;;37.25;31.75;;;;;13.03;50.87;102052.09;5037522;28;45280;-43
2022/04/28 01:39:46;;;;;;;;;39.75;34.25;;;;;13.01;50.29;102046.00;5037663;28;45370;-44
2022/04/28 01:42:12;;;;;;;;;31.50;26.50;;;;;12.98;50.38;102048.97;5037402;28;45650;-47
2022/04/28 01:44:38;;;;;;;;;35.75;31.00;;;;;12.94;50.45;102039.50;5037319;28;45330;-43
2022/04/28 01:47:03;;;;;;;;;39.75;30.25;;;;;12.92;50.90;102044.13;5037377;28;45234;-42
2022/04/28 01:49:29;;;;;;;;;38.25;30.75;;;;;12.90;50.69;102040.75;5037578;28;45380;-41
2022/04/28 01:57:23;;;;;;;;;38.25;31.75;;;;;12.79;50.85;102040.81;5037100;28;45725;-40
2022/04/28 01:59:49;;;;;;;;;39.25;31.25;;;;;12.79;50.36;102051.47;5037169;28;45309;-43
2022/04/28 02:02:14;;;;;;;;;36.00;28.00;;;;;12.75;51.71;102053.56;5037021;28;45335;-43
2022/04/28 02:04:39;;;;;;;;;35.00;30.25;;;;;12.73;51.13;102060.88;5037018;28;45279;-46
2022/04/28 02:07:06;;;;;;;;;40.50;31.50;;;;;12.69;51.32;102054.94;5037295;28;45364;-41
2022/04/28 02:09:32;;;;;;;;;31.50;28.50;;;;;12.68;51.06;102063.06;5037431;28;45484;-41
2022/04/28 02:11:58;;;;;;;;;40.00;30.25;;;;;12.63;51.16;102057.25;5037004;28;45986;-42
2022/04/28 02:14:23;;;;;;;;;34.75;30.50;;;;;12.65;51.03;102063.31;5037326;28;45420;-44
2022/04/28 02:16:49;;;;;;;;;45.75;33.75;;;;;12.61;52.19;102056.56;5037121;28;45370;-40
2022/04/28 02:19:15;;;;;;;;;32.25;28.50;;;;;12.59;51.08;102059.31;5037273;28;45334;-43
2022/04/28 02:21:40;;;;;;;;;41.00;32.75;;;;;12.57;51.86;102061.28;5036942;28;45285;-39
2022/04/28 02:24:07;;;;;;;;;33.50;27.00;;;;;12.54;50.93;102071.38;5036900;28;45257;-39
2022/04/28 02:26:32;;;;;;;;;39.50;29.00;;;;;12.52;51.42;102063.50;5036872;28;45230;-40
2022/04/28 02:28:58;;;;;;;;;38.75;32.25;;;;;12.50;51.35;102060.09;5037208;28;45366;-42
2022/04/28 02:31:23;;;;;;;;;38.00;32.00;;;;;12.46;51.66;102062.16;5036991;28;45601;-44
2022/04/28 02:33:49;;;;;;;;;36.50;29.50;;;;;12.42;52.03;102063.38;5037371;28;45373;-43
2022/04/28 02:36:14;;;;;;;;;39.75;29.75;;;;;12.40;52.46;102062.69;5040498;28;45301;-40
2022/04/28 02:38:40;;;;;;;;;33.50;26.75;;;;;12.35;51.93;102050.72;5040869;28;45589;-40
2022/04/28 02:41:05;;;;;;;;;40.75;32.25;;;;;12.39;52.11;102071.66;5040147;28;45503;-42
2022/04/28 02:43:31;;;;;;;;;40.25;31.25;;;;;12.36;52.55;102069.25;5040136;28;45380;-45
2022/04/28 02:45:58;;;;;;;;;37.25;30.25;;;;;12.35;52.14;102074.72;5040555;28;45395;-44
2022/04/28 02:48:24;;;;;;;;;43.25;35.50;;;;;12.32;51.96;102059.81;5040360;28;45531;-47
2022/04/28 02:50:50;;;;;;;;;39.25;32.25;;;;;12.32;51.67;102070.47;5040169;28;45345;-45
2022/04/28 02:53:15;;;;;;;;;35.50;31.00;;;;;12.30;52.48;102074.22;5040204;28;45378;-43
2022/04/28 02:55:41;;;;;;;;;36.25;32.00;;;;;12.27;52.38;102072.69;5040348;28;45368;-43
2022/04/28 02:58:08;;;;;;;;;37.25;25.75;;;;;12.27;52.22;102072.69;5040576;28;45220;-43
2022/04/28 03:00:34;;;;;;;;;35.00;30.75;;;;;12.25;52.41;102082.59;5039837;28;46199;-47
2022/04/28 03:03:00;;;;;;;;;43.00;32.25;;;;;12.22;52.56;102077.53;5040170;28;45324;-41
2022/04/28 03:05:25;;;;;;;;;47.75;34.00;;;;;12.20;52.84;102077.66;5040011;28;45211;-44
2022/04/28 03:10:49;;;;;;;;;36.00;30.50;;;;;12.17;52.67;102074.38;5039548;28;45775;-39
2022/04/28 03:13:17;;;;;;;;;45.50;30.50;;;;;12.10;52.95;102074.03;5039760;28;45340;-41
2022/04/28 03:15:45;;;;;;;;;39.00;32.50;;;;;12.12;52.55;102087.25;5039629;28;45313;-44
2022/04/28 03:18:12;;;;;;;;;45.00;32.25;;;;;12.10;52.90;102079.38;5039803;28;45532;-41
2022/04/28 03:20:37;;;;;;;;;34.00;29.75;;;;;12.05;52.90;102073.56;5039490;28;45422;-40
2022/04/28 03:23:03;;;;;;;;;32.75;29.50;;;;;12.06;53.04;102079.75;5039356;28;45388;-41
2022/04/28 03:25:29;;;;;;;;;35.25;29.00;;;;;12.05;53.05;102078.91;5039787;28;45409;-42
2022/04/28 03:27:56;;;;;;;;;41.25;33.25;;;;;12.03;53.06;102077.31;5039630;28;45254;-41
2022/04/28 03:30:22;;;;;;;;;44.75;32.25;;;;;12.02;52.63;102084.47;5039424;28;45512;-45
2022/04/28 03:32:48;;;;;;;;;35.75;32.25;;;;;11.99;53.39;102082.91;5039503;28;45314;-41
2022/04/28 03:35:14;;;;;;;;;41.00;35.00;;;;;11.86;52.95;102060.00;5039295;28;45368;-41
2022/04/28 03:37:40;;;;;;;;;47.00;36.50;;;;;11.96;53.76;102090.28;5039700;28;45341;-39
2022/04/28 03:40:06;;;;;;;;;38.50;32.50;;;;;11.94;53.52;102084.25;5039081;28;46179;-41
2022/04/28 03:42:33;;;;;;;;;39.00;33.50;;;;;11.91;53.76;102088.00;5038815;28;45376;-39
2022/04/28 03:44:58;;;;;;;;;40.75;31.50;;;;;11.88;53.91;102080.25;5039139;28;45328;-43
2022/04/28 03:47:24;;;;;;;;;38.25;32.75;;;;;11.90;53.31;102082.78;5039252;28;45344;-43
2022/04/28 03:49:49;;;;;;;;;46.50;34.50;;;;;11.88;53.34;102095.38;5039065;28;45680;-40
2022/04/28 03:52:15;;;;;;;;;42.00;35.00;;;;;11.86;54.16;102086.69;5039333;28;45461;-43
2022/04/28 03:54:40;;;;;;;;;46.25;37.00;;;;;11.84;53.71;102093.94;5039228;28;45549;-44
2022/04/28 03:57:06;;;;;;;;;38.75;31.00;;;;;11.83;53.82;102084.25;5039283;28;45492;-42
2022/04/28 03:59:32;;;;;;;;;38.25;32.75;;;;;11.79;53.76;102088.09;5038739;28;45266;-42
2022/04/28 04:01:58;;;;;;;;;43.50;35.00;;;;;11.80;54.02;102092.44;5038883;28;45353;-40
2022/04/28 04:04:23;;;;;;;;;50.75;38.00;;;;;11.78;54.12;102099.72;5038897;28;45377;-40
2022/04/28 04:06:49;;;;;;;;;44.50;34.50;;;;;11.76;53.56;102091.88;5037854;28;45474;-40
2022/04/28 04:09:14;;;;;;;;;41.00;36.25;;;;;11.74;53.80;102094.63;5038976;28;45424;-39
2022/04/28 04:11:40;;;;;;;;;38.00;31.75;;;;;11.70;54.21;102097.66;5038747;28;45199;-42
2022/04/28 04:14:05;;;;;;;;;36.00;29.75;;;;;11.66;53.14;102089.06;5038907;28;45251;-42
2022/04/28 04:16:31;;;;;;;;;47.75;35.00;;;;;11.59;54.28;102085.19;5039108;28;45230;-44
2022/04/28 04:18:56;;;;;;;;;41.00;37.50;;;;;11.32;54.30;102048.22;5038504;28;46206;-47
2022/04/28 04:21:22;;;;;;;;;44.50;34.50;;;;;11.63;54.05;102102.66;5038752;28;45502;-40
2022/04/28 04:23:47;;;;;;;;;40.50;33.00;;;;;11.60;54.84;102102.88;5038608;28;45475;-43
2022/04/28 04:26:13;;;;;;;;;33.50;30.75;;;;;11.61;54.88;102107.22;5039133;28;45472;-40
2022/04/28 04:28:38;;;;;;;;;41.00;33.25;;;;;11.59;54.29;102097.69;5038704;28;45826;-43
2022/04/28 04:33:48;;;;;;;;;44.25;33.00;;;;;11.57;53.78;102112.94;5038596;28;45408;-44
2022/04/28 04:36:13;;;;;;;;;43.25;36.00;;;;;11.52;54.74;102104.44;5038899;28;45360;-43
2022/04/28 04:38:39;;;;;;;;;43.50;37.25;;;;;11.54;54.58;102110.50;5038553;28;46164;-44
2022/04/28 04:41:05;;;;;;;;;44.50;33.25;;;;;11.53;55.12;102116.81;5038494;28;45307;-38
2022/04/28 04:43:31;;;;;;;;;39.75;31.00;;;;;11.53;54.47;102116.81;5038345;28;45406;-43
2022/04/28 04:45:56;;;;;;;;;36.50;33.75;;;;;11.52;54.78;102120.44;5038364;28;45460;-39
2022/04/28 04:48:23;;;;;;;;;50.75;36.50;;;;;11.52;54.38;102121.28;5038328;28;45971;-44
2022/04/28 04:50:49;;;;;;;;;36.00;32.75;;;;;11.52;54.27;102123.09;5038177;28;45208;-46
2022/04/28 04:53:14;;;;;;;;;43.50;34.25;;;;;11.51;55.09;102122.25;5038332;28;45299;-41
2022/04/28 04:55:39;;;;;;;;;41.00;33.25;;;;;11.54;54.82;102134.47;5038451;28;45225;-41
2022/04/28 04:58:05;;;;;;;;;57.00;37.25;;;;;11.52;54.81;102118.63;5036915;28;46396;-39
2022/04/28 05:00:31;;;;;;;;;42.75;33.00;;;;;11.51;55.66;102130.25;5037581;28;45380;-43
2022/04/28 05:02:56;;;;;;;;;45.50;35.25;;;;;11.52;54.77;102133.75;5037949;28;45483;-41
2022/04/28 05:05:22;;;;;;;;;47.00;37.75;;;;;11.53;54.78;102130.13;5038325;28;45357;-41
2022/04/28 05:07:47;;;;;;;;;49.75;38.75;;;;;11.53;55.05;102125.63;5037920;28;45343;-42
2022/04/28 05:10:13;;;;;;;;;43.00;34.75;;;;;11.54;55.43;102138.00;5037371;28;45358;-45
2022/04/28 05:12:38;;;;;;;;;46.25;37.00;;;;;11.48;55.25;102126.00;5037979;28;45186;-44
2022/04/28 05:15:04;;;;;;;;;40.75;32.25;;;;;11.54;55.10;102138.00;5038188;28;45308;-41
2022/04/28 05:17:29;;;;;;;;;51.75;36.50;;;;;11.55;55.07;102142.38;5037824;28;45489;-43
2022/04/28 05:19:58;;;;;;;;;44.75;36.75;;;;;11.57;55.17;102144.91;5037827;28;45452;-41
2022/04/28 05:22:24;;;;;;;;;45.00;35.50;;;;;11.59;55.05;102145.66;5037823;28;45358;-40
2022/04/28 05:24:49;;;;;;;;;54.25;35.75;;;;;11.61;55.45;102147.22;5037896;28;45191;-40
2022/04/28 05:27:15;;;;;;;;;55.25;40.00;;;;;11.63;55.29;102147.09;5037423;28;45964;-40
2022/04/28 05:29:40;;;;;;;;;48.50;36.25;;;;;11.57;54.30;102136.91;5037570;28;45309;-45
2022/04/28 05:32:06;;;;;;;;;44.25;38.00;;;;;11.68;55.34;102160.94;5037710;28;45818;-39
2022/04/28 05:34:31;;;;;;;;;49.50;38.75;;;;;11.70;55.54;102169.63;5037819;28;45377;-40
2022/04/28 05:36:57;;;;;;;;;46.50;36.50;;;;;11.76;54.83;102173.66;5037658;28;45311;-39
2022/04/28 05:39:23;;;;;;;;;46.50;35.25;;;;;11.78;54.67;102169.91;5037390;28;45474;-45
2022/04/28 05:41:48;;;;;;;;;44.25;36.50;;;;;11.83;54.46;102177.56;5037613;28;45361;-45
2022/04/28 05:46:58;;;;;;;;;51.50;39.75;;;;;11.53;55.44;102119.47;5037359;28;45795;-44
2022/04/28 05:49:24;;;;;;;;;47.25;37.50;;;;;11.91;55.44;102180.47;5037221;28;45398;-39
2022/04/28 05:51:49;;;;;;;;;49.25;37.00;;;;;11.95;54.11;102181.94;5037596;28;45861;-39
2022/04/28 05:54:16;;;;;;;;;46.00;37.00;;;;;11.99;55.29;102186.06;5036122;28;45428;-43
2022/04/28 05:56:44;;;;;;;;;51.00;39.00;;;;;12.03;54.30;102184.00;5037074;28;46367;-39
2022/04/28 05:59:11;;;;;;;;;47.00;40.00;;;;;12.06;54.93;102184.63;5037063;28;45300;-45
2022/04/28 06:01:37;;;;;;;;;48.50;35.75;;;;;12.12;55.09;102191.28;5037117;28;45336;-40
2022/04/28 06:04:04;;;;;;;;;48.25;38.00;;;;;12.13;54.73;102184.97;5037010;28;45531;-39
2022/04/28 06:06:29;;;;;;;;;46.50;38.25;;;;;12.21;54.12;102194.06;5036762;28;46200;-40
2022/04/28 06:08:55;;;;;;;;;55.75;39.50;;;;;12.24;54.57;102204.50;5035592;28;45423;-47
2022/04/28 06:11:20;;;;;;;;;49.00;40.00;;;;;12.22;54.09;102190.44;5037090;28;45415;-40
2022/04/28 06:13:46;;;;;;;;;50.00;36.00;;;;;12.28;53.87;102199.75;5036793;28;45445;-45
2022/04/28 06:16:11;;;;;;;;;52.00;39.50;;;;;12.32;54.63;102195.88;5036918;28;45790;-47
2022/04/28 06:18:36;;;;;;;;;48.75;39.00;;;;;12.36;54.26;102194.66;5036648;28;45407;-40
2022/04/28 06:21:02;;;;;;;;;53.00;41.25;;;;;12.46;54.52;102200.09;5036985;28;45260;-39
2022/04/28 06:23:27;;;;;;;;;50.75;39.00;;;;;12.51;54.33;102199.72;5037228;28;45361;-42
2022/04/28 06:25:53;;;;;;;;;44.00;35.75;;;;;12.58;54.44;102211.63;5036598;28;46284;-40
2022/04/28 06:28:18;;;;;;;;;48.50;38.00;;;;;12.65;54.39;102202.16;5036659;28;45334;-43
2022/04/28 06:30:43;;;;;;;;;54.25;40.50;;;;;12.69;54.50;102208.94;5036878;28;45386;-40
2022/04/28 06:33:09;;;;;;;;;48.50;38.25;;;;;12.77;53.80;102217.19;5036870;28;45314;-41
2022/04/28 06:35:35;;;;;;;;;50.25;37.25;;;;;12.85;53.45;102205.84;5036786;28;45243;-40
2022/04/28 06:38:01;;;;;;;;;51.50;40.50;;;;;12.83;53.54;102192.63;5036640;28;45455;-43
2022/04/28 06:40:27;;;;;;;;;51.00;37.50;;;;;13.00;53.02;102212.59;5036749;28;45366;-40
2022/04/28 06:42:53;;;;;;;;;45.00;39.50;;;;;13.07;53.38;102212.97;5036635;28;45407;-41
2022/04/28 06:45:18;;;;;;;;;48.00;38.75;;;;;13.18;53.02;102220.91;5036379;28;46072;-40
2022/04/28 06:47:43;;;;;;;;;48.50;39.00;;;;;13.30;52.78;102216.41;5036603;28;45241;-39
2022/04/28 06:50:09;;;;;;;;;40.75;29.50;;;;;13.40;52.91;102225.34;5036653;28;45285;-42
2022/04/28 06:52:36;;;;;;;;;57.75;40.75;;;;;13.53;51.98;102218.00;5036588;28;45305;-38
2022/04/28 06:55:03;;;;;;;;;58.25;42.00;;;;;13.70;52.02;102221.91;5036416;28;45326;-40
2022/04/28 06:57:28;;;;;;;;;48.50;38.25;;;;;13.93;51.59;102227.97;5036235;28;45512;-41
2022/04/28 06:59:53;;;;;;;;;54.25;41.25;;;;;14.57;50.68;102221.50;5036324;28;45412;-42
2022/04/28 07:02:20;;;;;;;;;52.50;40.25;;;;;15.89;47.98;102229.03;5036789;28;45317;-42
2022/04/28 07:04:46;;;;;;;;;50.50;37.25;;;;;17.30;44.59;102210.72;5036265;28;47324;-42
2022/04/28 07:07:11;;;;;;;;;48.50;40.25;;;;;18.54;41.82;102222.13;5036411;28;45513;-40
2022/04/28 07:09:36;;;;;;;;;50.25;37.50;;;;;19.34;40.82;102218.91;5036403;28;45381;-41
2022/04/28 07:12:02;;;;;;;;;49.00;38.00;;;;;19.97;39.63;102217.34;5036647;28;45452;-45
2022/04/28 07:14:27;;;;;;;;;41.00;34.33;;;;;20.62;39.63;102223.38;5035994;28;45668;-40
2022/04/28 07:16:53;;;;;;;;;45.33;35.67;;;;;21.10;38.84;102234.06;5036355;28;45412;-39
2022/04/28 07:19:18;;;;;;;;;45.00;35.67;;;;;21.37;38.24;102230.03;5036449;28;45323;-40
2022/04/28 07:21:43;;;;;;;;;43.00;35.00;;;;;21.49;35.92;102228.56;5039720;28;45392;-39
2022/04/28 07:24:09;;;;;;;;;40.67;34.33;;;;;21.68;36.19;102222.63;5039533;28;46553;-39
2022/04/28 07:26:35;;;;;;;;;42.33;35.00;;;;;22.00;37.80;102212.47;5039582;28;45349;-41
2022/04/28 07:29:00;;;;;;;;;40.00;35.00;;;;;22.20;37.73;102222.78;5039829;28;45381;-39
2022/04/28 07:31:26;;;;;;;;;42.33;36.67;;;;;22.41;36.05;102220.97;5039628;28;45410;-43
2022/04/28 07:33:52;;;;;;;;;43.00;37.00;;;;;22.59;35.63;102217.88;5039375;28;46082;-40
2022/04/28 07:36:17;;;;;;;;;42.00;35.67;;;;;22.79;34.14;102225.41;5037754;28;45363;-39
2022/04/28 07:38:43;;;;;;;;;36.67;32.67;;;;;23.12;36.31;102217.63;5037976;28;45231;-39
2022/04/28 07:41:09;;;;;;;;;40.00;35.00;;;;;23.51;34.60;102225.31;5039661;28;45383;-41
2022/04/28 07:43:34;;;;;;;;;40.00;34.33;;;;;23.81;33.19;102219.72;5038741;28;45530;-40
2022/04/28 07:46:00;;;;;;;;;37.33;32.33;;;;;24.09;36.73;102215.06;5039152;28;45325;-40
2022/04/28 07:48:25;;;;;;;;;34.00;29.00;;;;;24.61;36.12;102230.00;5039219;28;45292;-39
2022/04/28 07:50:51;;;;;;;;;41.33;33.00;;;;;24.91;30.48;102226.13;5039256;28;45273;-40
2022/04/28 07:53:17;;;;;;;;;46.33;36.00;;;;;25.37;31.38;102223.47;5039023;28;46123;-40
2022/04/28 07:55:43;;;;;;;;;35.67;31.00;;;;;26.07;32.50;102223.84;5039022;28;45405;-40
2022/04/28 07:58:08;;;;;;;;;45.00;33.33;;;;;27.24;28.20;102216.38;5038867;28;45315;-42
2022/04/28 08:00:34;;;;;;;;;40.67;31.67;;;;;28.84;29.22;102216.34;5038840;28;45404;-41
2022/04/28 08:02:59;;;;;;;;;41.00;33.00;;;;;30.46;24.55;102214.97;5038912;28;46435;-42
2022/04/28 08:05:25;;;;;;;;;42.00;34.33;;;;;31.91;22.89;102221.66;5039128;28;45327;-44
2022/04/28 08:07:50;;;;;;;;;39.50;34.00;;;;;32.95;21.97;102217.97;5039018;28;45445;-40
2022/04/28 08:10:16;;;;;;;;;41.50;32.25;;;;;33.73;19.77;102217.47;5039095;28;45369;-41
2022/04/28 08:12:41;;;;;;;;;32.25;29.75;;;;;34.43;19.78;102218.09;5038830;28;45779;-40
2022/04/28 08:15:07;;;;;;;;;27.50;25.00;;;;;35.00;20.72;102217.16;5038777;28;45357;-45
2022/04/28 08:17:33;;;;;;;;;39.00;29.75;;;;;35.52;19.15;102216.03;5038982;28;45285;-41
2022/04/28 08:19:59;;;;;;;;;36.75;31.25;;;;;35.75;18.65;102206.31;5038963;28;45360;-40
2022/04/28 08:22:24;;;;;;;;;27.50;25.50;;;;;35.82;18.85;102219.81;5038472;28;46082;-42
2022/04/28 08:24:50;;;;;;;;;30.75;28.00;;;;;35.80;20.07;102224.84;5038715;28;45341;-40
2022/04/28 08:27:15;;;;;;;;;30.00;29.25;;;;;36.06;19.30;102223.66;5039083;28;45231;-39
2022/04/28 08:29:41;;;;;;;;;27.75;26.25;;;;;35.89;19.00;102229.50;5038806;28;45420;-40
2022/04/28 08:32:07;;;;;;;;;28.50;26.50;;;;;35.19;21.25;102220.19;5037423;28;45349;-40
2022/04/28 08:34:33;;;;;;;;;27.20;26.20;;;;;34.43;20.25;102229.16;5038289;28;45288;-38
2022/04/28 08:36:58;;;;;;;;;28.25;26.00;;;;;34.74;17.95;102219.84;5038676;28;45378;-40
2022/04/28 08:39:25;;;;;;;;;26.75;25.50;;;;;35.57;19.19;102226.28;5038694;28;45490;-39
2022/04/28 08:41:52;;;;;;;;;31.80;26.60;;;;;36.50;17.23;102228.47;5038272;28;46275;-38
2022/04/28 08:44:21;;;;;;;;;27.80;25.60;;;;;37.09;15.88;102230.31;5038044;28;45488;-45
2022/04/28 08:46:53;;;;;;;;;25.00;21.20;;;;;38.01;14.95;102225.78;5038542;28;45403;-39
2022/04/28 08:49:26;;;;;;;;;25.80;24.60;;;;;38.20;16.41;102216.38;5038505;28;45347;-39
2022/04/28 08:51:56;;;;;;;;;25.20;25.20;;;;;38.29;16.96;102215.72;5038414;28;45421;-40
2022/04/28 08:54:24;;;;;;;;;26.80;22.00;;;;;37.62;16.38;102229.56;5038115;28;45460;-41
2022/04/28 08:56:52;;;;;;;;;25.40;23.60;;;;;36.67;17.79;102236.41;5038238;28;45451;-40
2022/04/28 08:59:18;;;;;;;;;11.60;8.80;;;;;36.34;16.64;102222.16;5038368;28;45447;-39
2022/04/28 09:01:43;;;;;;;;;26.20;24.80;;;;;36.94;16.35;102219.31;5037991;28;46075;-42
2022/04/28 09:04:10;;;;;;;;;19.50;18.25;;;;;37.70;16.70;102223.34;5037991;28;45324;-39
2022/04/28 09:06:38;;;;;;;;;25.00;24.00;;;;;38.47;15.23;102211.31;5038015;28;45233;-43
2022/04/28 09:09:07;;;;;;;;;26.20;24.00;;;;;39.14;15.96;102206.38;5038037;28;45385;-39
2022/04/28 09:11:35;;;;;;;;;27.60;26.40;;;;;38.17;16.33;102216.97;5037758;28;46757;-40
2022/04/28 09:14:15;;;;;;;;;25.60;21.40;;;;;36.17;16.69;102210.59;5037406;28;45407;-40
2022/04/28 09:16:43;;;;;;;;;23.60;21.20;;;;;35.63;17.01;102216.84;5037656;28;45332;-41
2022/04/28 09:19:19;;;;;;;;;26.60;22.20;;;;;35.96;17.27;102210.69;5037937;28;45459;-40
2022/04/28 09:21:46;;;;;;;;;21.80;20.60;;;;;35.82;17.41;102203.22;5037799;28;46030;-39
2022/04/28 09:24:13;;;;;;;;;24.40;21.60;;;;;35.19;17.44;102198.06;5037717;28;45372;-39
2022/04/28 09:26:40;;;;;;;;;18.40;16.60;;;;;34.53;18.41;102197.97;5037875;28;45340;-40
2022/04/28 09:29:10;;;;;;;;;25.20;21.80;;;;;34.67;17.01;102193.56;5037989;28;45416;-44
2022/04/28 09:31:40;;;;;;;;;27.00;21.60;;;;;34.72;17.88;102193.56;5037376;28;46204;-40
2022/04/28 09:34:10;;;;;;;;;21.20;19.00;;;;;34.58;17.39;102201.56;5037641;28;45678;-40
2022/04/28 09:36:38;;;;;;;;;18.00;18.00;;;;;34.49;18.54;102189.41;5037824;28;45234;-39
2022/04/28 09:39:05;;;;;;;;;23.40;18.80;;;;;34.45;18.78;102199.31;5037873;28;45411;-39
2022/04/28 09:44:16;;;;;;;;;24.00;22.00;;;;;34.89;17.86;102194.16;5037192;28;45293;-38
2022/04/28 09:46:43;;;;;;;;;25.40;22.40;;;;;35.65;17.33;102200.78;5037332;28;45515;-41
2022/04/28 09:49:10;;;;;;;;;24.00;19.60;;;;;36.57;17.37;102200.44;5037624;28;45420;-41
2022/04/28 09:51:38;;;;;;;;;20.60;20.00;;;;;37.68;16.19;102197.84;5037271;28;45948;-39
2022/04/28 09:54:08;;;;;;;;;18.40;18.00;;;;;38.03;15.76;102187.44;5037342;28;45392;-40
2022/04/28 09:56:36;;;;;;;;;22.80;18.20;;;;;37.82;15.16;102189.63;5037240;28;45329;-41
2022/04/28 09:59:05;;;;;;;;;18.40;17.00;;;;;37.33;16.10;102191.50;5037582;28;45416;-45
2022/04/28 10:01:30;;;;;;;;;20.60;18.00;;;;;36.87;15.69;102186.34;5036737;28;45310;-41
2022/04/28 10:03:57;;;;;;;;;20.00;18.50;;;;;35.86;17.03;102179.38;5037018;28;45365;-45
2022/04/28 10:06:25;;;;;;;;;22.20;18.60;;;;;35.31;16.95;102189.47;5037302;28;45265;-40
2022/04/28 10:08:52;;;;;;;;;19.00;17.00;;;;;34.72;17.57;102188.06;5037323;28;45391;-40
2022/04/28 10:11:25;;;;;;;;;18.20;17.60;;;;;34.80;17.06;102181.97;5037154;28;46314;-39
2022/04/28 10:13:51;;;;;;;;;19.00;19.00;;;;;35.14;16.53;102184.22;5037060;28;45448;-40
2022/04/28 10:16:19;;;;;;;;;17.20;13.80;;;;;34.93;17.87;102178.69;5036906;28;45328;-39
2022/04/28 10:18:57;;;;;;;;;16.00;15.80;;;;;34.87;18.19;102174.25;5037269;28;45411;-41
2022/04/28 10:21:28;;;;;;;;;22.40;18.60;;;;;34.33;18.55;102179.38;5036914;28;45221;-39
2022/04/28 10:32:53;;;;;;;;;16.20;14.20;;;;;33.08;18.95;102174.50;5036804;28;45280;-39
2022/04/28 10:35:32;;;;;;;;;15.60;13.00;;;;;33.59;17.64;102172.16;5037281;28;45275;-40
2022/04/28 10:38:14;;;;;;;;;17.20;17.20;;;;;33.94;17.90;102164.03;5036756;28;45439;-39
2022/04/28 10:41:04;;;;;;;;;17.00;14.20;;;;;34.25;16.93;102165.00;5037001;28;45415;-39
2022/04/28 10:43:32;;;;;;;;;14.40;13.80;;;;;34.71;17.14;102162.34;5036233;28;46172;-38
2022/04/28 10:46:01;;;;;;;;;13.20;13.20;;;;;34.62;16.93;102160.41;5036589;28;45492;-44
2022/04/28 10:48:29;;;;;;;;;11.00;11.00;;;;;34.24;17.60;102155.03;5036666;28;45417;-39
2022/04/28 10:51:10;;;;;;;;;14.80;12.00;;;;;34.22;17.69;102146.22;5036706;28;45349;-40
2022/04/28 10:54:03;;;;;;;;;16.00;12.60;;;;;33.91;16.77;102149.94;5036421;28;45435;-44
2022/04/28 10:57:01;;;;;;;;;11.60;11.00;;;;;33.31;16.66;102146.56;5039471;28;45163;-39
2022/04/28 10:59:29;;;;;;;;;11.00;11.00;;;;;33.03;18.40;102161.50;5039849;28;45439;-39
2022/04/28 11:02:10;;;;;;;;;9.40;9.40;;;;;32.55;18.22;102157.75;5040133;28;45900;-39
2022/04/28 11:04:36;;;;;;;;;10.40;10.40;;;;;31.75;18.24;102150.94;5039935;28;46142;-40
2022/04/28 11:07:07;;;;;;;;;9.20;9.20;;;;;31.13;18.78;102134.59;5039951;28;45252;-39
2022/04/28 11:09:37;;;;;;;;;11.00;10.40;;;;;30.73;17.99;102144.69;5040121;28;45297;-40
2022/04/28 11:12:18;;;;;;;;;9.20;9.20;;;;;30.72;18.68;102147.63;5040213;28;45493;-39
2022/04/28 11:15:02;;;;;;;;;11.20;10.00;;;;;30.83;18.47;102154.19;5039900;28;46166;-38
2022/04/28 11:17:30;;;;;;;;;10.80;10.20;;;;;30.95;18.09;102142.03;5039954;28;45364;-39
2022/04/28 11:19:56;;;;;;;;;11.40;11.40;;;;;31.02;18.30;102150.94;5039922;28;45369;-40
2022/04/28 11:22:22;;;;;;;;;8.80;8.80;;;;;31.69;17.63;102155.56;5040181;28;45231;-40
2022/04/28 11:24:51;;;;;;;;;10.60;9.20;;;;;32.68;17.37;102153.72;5039510;28;46281;-40
2022/04/28 11:27:21;;;;;;;;;9.40;8.20;;;;;33.10;16.21;102151.09;5039480;28;45369;-39
2022/04/28 11:29:49;;;;;;;;;7.00;7.00;;;;;33.72;15.85;102152.34;5039850;28;45238;-39
2022/04/28 11:32:16;;;;;;;;;10.00;8.60;;;;;34.23;15.24;102152.56;5039601;28;45376;-43
2022/04/28 11:34:43;;;;;;;;;10.80;9.00;;;;;33.71;15.58;102143.25;5039269;28;45436;-39
2022/04/28 11:37:20;;;;;;;;;10.60;8.20;;;;;32.73;16.60;102153.78;5039569;28;45324;-39